sensor_id;sensor_type;location;lat;lon;timestamp;pressure;altitude;pressure_sealevel;temperature;humidity
71956;BME280;59829;50.562;6.258;2023-07-22T00:04:26;95688.78;;;12.48;77.04
71956;BME280;59829;50.562;6.258;2023-07-22T00:14:27;95691.78;;;12.33;77.17
71956;BME280;59829;50.562;6.258;2023-07-22T00:24:27;95696.91;;;12.33;77.31
71956;BME280;59829;50.562;6.258;2023-07-22T00:34:28;95697.72;;;12.24;77.41
71956;BME280;59829;50.562;6.258;2023-07-22T00:44:29;95689.34;;;12.22;77.51
71956;BME280;59829;50.562;6.258;2023-07-22T00:54:30;95680.94;;;12.30;77.93
71956;BME280;59829;50.562;6.258;2023-07-22T01:04:33;95673.25;;;12.20;77.70
71956;BME280;59829;50.562;6.258;2023-07-22T01:14:35;95676.63;;;12.11;77.75
71956;BME280;59829;50.562;6.258;2023-07-22T01:24:38;95667.44;;;11.99;77.68
71956;BME280;59829;50.562;6.258;2023-07-22T01:34:38;95658.50;;;11.84;77.52
71956;BME280;59829;50.562;6.258;2023-07-22T01:44:40;95655.47;;;11.69;77.74
71956;BME280;59829;50.562;6.258;2023-07-22T01:54:40;95657.34;;;11.57;77.84
71956;BME280;59829;50.562;6.258;2023-07-22T02:04:40;95648.16;;;11.55;77.97
71956;BME280;59829;50.562;6.258;2023-07-22T02:14:40;95651.09;;;11.40;78.08
71956;BME280;59829;50.562;6.258;2023-07-22T02:24:41;95631.66;;;11.38;77.94
71956;BME280;59829;50.562;6.258;2023-07-22T02:34:41;95631.88;;;11.25;77.86
71956;BME280;59829;50.562;6.258;2023-07-22T02:44:41;95639.56;;;11.15;78.18
71956;BME280;59829;50.562;6.258;2023-07-22T02:54:42;95635.88;;;11.08;78.37
71956;BME280;59829;50.562;6.258;2023-07-22T03:04:42;95644.22;;;11.10;78.43
71956;BME280;59829;50.562;6.258;2023-07-22T03:14:43;95633.81;;;11.02;78.40
71956;BME280;59829;50.562;6.258;2023-07-22T03:24:44;95647.16;;;10.96;78.36
71956;BME280;59829;50.562;6.258;2023-07-22T03:34:45;95636.34;;;10.93;78.59
71956;BME280;59829;50.562;6.258;2023-07-22T03:44:45;95644.69;;;10.85;78.77
71956;BME280;59829;50.562;6.258;2023-07-22T03:54:45;95637.25;;;10.82;78.84
71956;BME280;59829;50.562;6.258;2023-07-22T04:04:45;95642.84;;;10.97;78.89
71956;BME280;59829;50.562;6.258;2023-07-22T04:14:46;95636.34;;;10.93;78.85
71956;BME280;59829;50.562;6.258;2023-07-22T04:24:46;95627.47;;;10.97;79.11
71956;BME280;59829;50.562;6.258;2023-07-22T04:34:48;95627.53;;;11.16;79.28
71956;BME280;59829;50.562;6.258;2023-07-22T04:44:48;95632.69;;;11.26;79.39
71956;BME280;59829;50.562;6.258;2023-07-22T04:54:49;95633.25;;;11.39;79.45
71956;BME280;59829;50.562;6.258;2023-07-22T05:04:49;95626.31;;;11.70;79.77
71956;BME280;59829;50.562;6.258;2023-07-22T05:14:50;95625.28;;;11.92;79.61
71956;BME280;59829;50.562;6.258;2023-07-22T05:24:50;95626.63;;;12.15;79.50
71956;BME280;59829;50.562;6.258;2023-07-22T05:34:50;95631.47;;;12.37;79.89
71956;BME280;59829;50.562;6.258;2023-07-22T05:44:53;95634.09;;;12.65;80.01
71956;BME280;59829;50.562;6.258;2023-07-22T05:54:54;95626.75;;;12.89;80.03
71956;BME280;59829;50.562;6.258;2023-07-22T06:04:54;95639.63;;;13.17;79.90
71956;BME280;59829;50.562;6.258;2023-07-22T06:14:54;95638.34;;;13.40;79.50
71956;BME280;59829;50.562;6.258;2023-07-22T06:24:55;95631.53;;;13.67;79.24
71956;BME280;59829;50.562;6.258;2023-07-22T06:34:56;95630.84;;;13.92;78.83
71956;BME280;59829;50.562;6.258;2023-07-22T06:44:57;95630.09;;;14.17;78.45
71956;BME280;59829;50.562;6.258;2023-07-22T06:54:57;95651.47;;;14.36;77.89
71956;BME280;59829;50.562;6.258;2023-07-22T07:04:57;95648.47;;;14.58;77.36
71956;BME280;59829;50.562;6.258;2023-07-22T07:14:58;95646.06;;;14.83;76.98
71956;BME280;59829;50.562;6.258;2023-07-22T07:24:58;95650.91;;;15.12;76.46
71956;BME280;59829;50.562;6.258;2023-07-22T07:34:58;95646.78;;;15.35;75.94
71956;BME280;59829;50.562;6.258;2023-07-22T07:44:58;95642.50;;;15.52;75.04
71956;BME280;59829;50.562;6.258;2023-07-22T07:54:59;95646.31;;;15.74;74.17
71956;BME280;59829;50.562;6.258;2023-07-22T08:04:59;95635.88;;;16.00;73.14
71956;BME280;59829;50.562;6.258;2023-07-22T08:14:59;95649.78;;;16.23;71.71
71956;BME280;59829;50.562;6.258;2023-07-22T08:25:00;95643.16;;;16.37;70.65
71956;BME280;59829;50.562;6.258;2023-07-22T08:35:00;95638.16;;;16.43;69.12
71956;BME280;59829;50.562;6.258;2023-07-22T08:45:01;95646.38;;;16.55;68.08
71956;BME280;59829;50.562;6.258;2023-07-22T08:55:02;95655.44;;;16.59;66.87
71956;BME280;59829;50.562;6.258;2023-07-22T09:05:03;95646.06;;;16.74;65.87
71956;BME280;59829;50.562;6.258;2023-07-22T09:15:04;95643.94;;;16.94;65.00
71956;BME280;59829;50.562;6.258;2023-07-22T09:25:26;95637.09;;;17.09;63.92
71956;BME280;59829;50.562;6.258;2023-07-22T09:35:52;95638.38;;;17.22;62.82
71956;BME280;59829;50.562;6.258;2023-07-22T09:45:51;95644.94;;;17.40;62.13
71956;BME280;59829;50.562;6.258;2023-07-22T09:55:52;95641.13;;;17.59;61.08
71956;BME280;59829;50.562;6.258;2023-07-22T10:05:53;95638.19;;;17.70;60.34
71956;BME280;59829;50.562;6.258;2023-07-22T10:15:54;95635.19;;;17.82;58.99
71956;BME280;59829;50.562;6.258;2023-07-22T10:25:55;95630.44;;;17.93;57.44
71956;BME280;59829;50.562;6.258;2023-07-22T10:36:14;95632.13;;;18.09;56.88
71956;BME280;59829;50.562;6.258;2023-07-22T10:46:14;95614.88;;;18.16;55.76
71956;BME280;59829;50.562;6.258;2023-07-22T10:56:15;95618.41;;;18.23;55.06
71956;BME280;59829;50.562;6.258;2023-07-22T11:06:17;95611.13;;;18.42;54.39
71956;BME280;59829;50.562;6.258;2023-07-22T11:16:18;95616.06;;;18.51;53.65
71956;BME280;59829;50.562;6.258;2023-07-22T11:26:18;95600.81;;;18.71;53.33
71956;BME280;59829;50.562;6.258;2023-07-22T11:36:19;95593.84;;;18.86;52.97
71956;BME280;59829;50.562;6.258;2023-07-22T11:46:19;95584.47;;;18.85;52.12
71956;BME280;59829;50.562;6.258;2023-07-22T11:56:23;95579.09;;;19.02;51.53
71956;BME280;59829;50.562;6.258;2023-07-22T12:06:27;95568.25;;;19.13;50.98
71956;BME280;59829;50.562;6.258;2023-07-22T12:16:28;95569.56;;;19.23;50.36
71956;BME280;59829;50.562;6.258;2023-07-22T12:26:28;95566.59;;;19.41;50.37
71956;BME280;59829;50.562;6.258;2023-07-22T12:36:29;95570.25;;;19.47;49.51
71956;BME280;59829;50.562;6.258;2023-07-22T12:46:29;95569.00;;;19.57;49.11
71956;BME280;59829;50.562;6.258;2023-07-22T12:56:29;95548.34;;;19.71;49.03
71956;BME280;59829;50.562;6.258;2023-07-22T13:06:30;95553.31;;;19.87;49.13
71956;BME280;59829;50.562;6.258;2023-07-22T13:16:30;95532.84;;;19.99;48.90
71956;BME280;59829;50.562;6.258;2023-07-22T13:26:31;95514.16;;;20.16;48.98
71956;BME280;59829;50.562;6.258;2023-07-22T13:36:31;95528.25;;;20.29;48.64
71956;BME280;59829;50.562;6.258;2023-07-22T13:46:31;95519.59;;;20.43;48.21
71956;BME280;59829;50.562;6.258;2023-07-22T13:56:32;95512.88;;;20.55;47.95
71956;BME280;59829;50.562;6.258;2023-07-22T14:06:32;95504.44;;;20.53;47.99
71956;BME280;59829;50.562;6.258;2023-07-22T14:16:33;95492.06;;;20.62;47.97
71956;BME280;59829;50.562;6.258;2023-07-22T14:26:34;95504.44;;;20.88;48.21
71956;BME280;59829;50.562;6.258;2023-07-22T14:36:34;95494.84;;;20.95;47.90
71956;BME280;59829;50.562;6.258;2023-07-22T14:46:34;95493.09;;;21.02;47.61
71956;BME280;59829;50.562;6.258;2023-07-22T14:56:35;95482.47;;;21.10;47.74
71956;BME280;59829;50.562;6.258;2023-07-22T15:06:35;95484.44;;;20.95;47.60
71956;BME280;59829;50.562;6.258;2023-07-22T15:16:35;95495.44;;;20.97;47.71
71956;BME280;59829;50.562;6.258;2023-07-22T15:26:36;95490.41;;;20.89;47.82
71956;BME280;59829;50.562;6.258;2023-07-22T15:36:36;95484.22;;;20.96;48.12
71956;BME280;59829;50.562;6.258;2023-07-22T15:46:36;95496.69;;;21.01;48.25
71956;BME280;59829;50.562;6.258;2023-07-22T15:56:36;95497.00;;;20.85;48.19
71956;BME280;59829;50.562;6.258;2023-07-22T16:06:37;95482.94;;;20.72;48.23
71956;BME280;59829;50.562;6.258;2023-07-22T16:16:37;95471.72;;;20.72;48.39
71956;BME280;59829;50.562;6.258;2023-07-22T16:26:37;95466.91;;;20.75;48.87
71956;BME280;59829;50.562;6.258;2023-07-22T16:36:38;95476.91;;;20.65;49.01
71956;BME280;59829;50.562;6.258;2023-07-22T16:46:38;95467.63;;;20.56;49.21
71956;BME280;59829;50.562;6.258;2023-07-22T16:56:40;95465.25;;;20.61;49.45
71956;BME280;59829;50.562;6.258;2023-07-22T17:06:40;95445.41;;;20.60;49.75
71956;BME280;59829;50.562;6.258;2023-07-22T17:16:40;95449.22;;;20.58;50.01
71956;BME280;59829;50.562;6.258;2023-07-22T17:26:41;95442.13;;;20.45;50.03
71956;BME280;59829;50.562;6.258;2023-07-22T17:36:41;95444.28;;;20.35;50.06
71956;BME280;59829;50.562;6.258;2023-07-22T17:46:41;95434.25;;;20.32;50.28
71956;BME280;59829;50.562;6.258;2023-07-22T17:56:42;95438.22;;;20.28;50.22
71956;BME280;59829;50.562;6.258;2023-07-22T18:06:42;95433.41;;;20.25;50.28
71956;BME280;59829;50.562;6.258;2023-07-22T18:16:43;95431.78;;;20.24;50.53
71956;BME280;59829;50.562;6.258;2023-07-22T18:26:43;95427.97;;;20.20;50.30
71956;BME280;59829;50.562;6.258;2023-07-22T18:36:43;95423.16;;;20.16;50.83
71956;BME280;59829;50.562;6.258;2023-07-22T18:46:46;95436.34;;;20.15;51.05
71956;BME280;59829;50.562;6.258;2023-07-22T18:56:47;95430.91;;;20.10;51.24
71956;BME280;59829;50.562;6.258;2023-07-22T19:06:47;95416.88;;;20.04;51.50
71956;BME280;59829;50.562;6.258;2023-07-22T19:16:55;95421.22;;;19.97;51.94
71956;BME280;59829;50.562;6.258;2023-07-22T19:26:55;95420.38;;;19.90;52.11
71956;BME280;59829;50.562;6.258;2023-07-22T19:36:56;95423.91;;;19.82;52.52
71956;BME280;59829;50.562;6.258;2023-07-22T19:46:56;95431.41;;;19.71;52.58
71956;BME280;59829;50.562;6.258;2023-07-22T19:56:56;95424.13;;;19.60;53.09
71956;BME280;59829;50.562;6.258;2023-07-22T20:06:57;95409.25;;;19.53;53.26
71956;BME280;59829;50.562;6.258;2023-07-22T20:16:57;95413.72;;;19.38;53.45
71956;BME280;59829;50.562;6.258;2023-07-22T20:26:57;95419.75;;;19.24;54.06
71956;BME280;59829;50.562;6.258;2023-07-22T20:36:58;95420.66;;;19.10;54.24
71956;BME280;59829;50.562;6.258;2023-07-22T20:46:58;95419.88;;;18.94;54.62
71956;BME280;59829;50.562;6.258;2023-07-22T20:57:03;95406.56;;;18.83;54.95
71956;BME280;59829;50.562;6.258;2023-07-22T21:07:04;95412.66;;;18.60;55.80
71956;BME280;59829;50.562;6.258;2023-07-22T21:17:05;95403.28;;;18.45;56.78
71956;BME280;59829;50.562;6.258;2023-07-22T21:27:05;95394.47;;;18.24;57.20
71956;BME280;59829;50.562;6.258;2023-07-22T21:37:05;95393.28;;;18.12;57.66
71956;BME280;59829;50.562;6.258;2023-07-22T21:47:06;95386.75;;;18.16;58.00
71956;BME280;59829;50.562;6.258;2023-07-22T21:57:06;95372.56;;;18.12;58.64
71956;BME280;59829;50.562;6.258;2023-07-22T22:07:06;95368.00;;;18.14;58.77
71956;BME280;59829;50.562;6.258;2023-07-22T22:17:07;95358.25;;;18.16;58.70
71956;BME280;59829;50.562;6.258;2023-07-22T22:27:07;95359.84;;;18.17;58.79
71956;BME280;59829;50.562;6.258;2023-07-22T22:37:07;95357.25;;;18.17;58.91
71956;BME280;59829;50.562;6.258;2023-07-22T22:47:08;95355.47;;;18.18;59.03
71956;BME280;59829;50.562;6.258;2023-07-22T22:57:08;95338.31;;;18.17;59.11
71956;BME280;59829;50.562;6.258;2023-07-22T23:07:08;95328.38;;;18.20;59.05
71956;BME280;59829;50.562;6.258;2023-07-22T23:17:09;95319.28;;;18.24;59.35
71956;BME280;59829;50.562;6.258;2023-07-22T23:27:09;95305.31;;;18.25;59.33
71956;BME280;59829;50.562;6.258;2023-07-22T23:37:09;95298.16;;;18.27;59.05
71956;BME280;59829;50.562;6.258;2023-07-22T23:47:10;95281.00;;;18.26;58.95
71956;BME280;59829;50.562;6.258;2023-07-22T23:57:10;95281.00;;;18.26;59.14
